sensor_id;sensor_type;location;lat;lon;timestamp;P1;durP1;ratioP1;P2;durP2;ratioP2
59854;SDS011;45732;52.850;6.896;2022-11-04T00:01:40;12.10;;;7.72;;
59854;SDS011;45732;52.850;6.896;2022-11-04T00:04:07;10.15;;;7.60;;
59854;SDS011;45732;52.850;6.896;2022-11-04T00:06:34;10.75;;;8.10;;
59854;SDS011;45732;52.850;6.896;2022-11-04T00:09:02;12.20;;;8.32;;
59854;SDS011;45732;52.850;6.896;2022-11-04T00:11:29;10.27;;;8.02;;
59854;SDS011;45732;52.850;6.896;2022-11-04T00:14:13;10.05;;;7.30;;
59854;SDS011;45732;52.850;6.896;2022-11-04T00:16:39;9.27;;;7.40;;
59854;SDS011;45732;52.850;6.896;2022-11-04T00:19:24;7.40;;;5.70;;
59854;SDS011;45732;52.850;6.896;2022-11-04T00:21:50;7.22;;;5.45;;
59854;SDS011;45732;52.850;6.896;2022-11-04T00:24:34;6.32;;;4.10;;
59854;SDS011;45732;52.850;6.896;2022-11-04T00:29:54;3.92;;;2.00;;
59854;SDS011;45732;52.850;6.896;2022-11-04T00:32:20;1.58;;;1.10;;
59854;SDS011;45732;52.850;6.896;2022-11-04T00:35:04;1.73;;;0.98;;
59854;SDS011;45732;52.850;6.896;2022-11-04T00:37:30;1.17;;;0.70;;
59854;SDS011;45732;52.850;6.896;2022-11-04T00:39:56;1.17;;;0.70;;
59854;SDS011;45732;52.850;6.896;2022-11-04T00:42:21;0.88;;;0.65;;
59854;SDS011;45732;52.850;6.896;2022-11-04T00:44:47;1.45;;;0.70;;
59854;SDS011;45732;52.850;6.896;2022-11-04T00:47:13;1.77;;;0.63;;
59854;SDS011;45732;52.850;6.896;2022-11-04T00:49:38;1.00;;;0.70;;
59854;SDS011;45732;52.850;6.896;2022-11-04T00:52:04;1.73;;;0.70;;
59854;SDS011;45732;52.850;6.896;2022-11-04T00:54:30;3.03;;;0.75;;
59854;SDS011;45732;52.850;6.896;2022-11-04T00:56:56;2.22;;;0.70;;
59854;SDS011;45732;52.850;6.896;2022-11-04T00:59:21;1.48;;;0.60;;
59854;SDS011;45732;52.850;6.896;2022-11-04T01:01:47;0.55;;;0.55;;
59854;SDS011;45732;52.850;6.896;2022-11-04T01:04:13;1.80;;;0.50;;
59854;SDS011;45732;52.850;6.896;2022-11-04T01:06:38;2.30;;;0.60;;
59854;SDS011;45732;52.850;6.896;2022-11-04T01:09:05;2.17;;;0.43;;
59854;SDS011;45732;52.850;6.896;2022-11-04T01:11:32;1.88;;;0.52;;
59854;SDS011;45732;52.850;6.896;2022-11-04T01:13:58;1.05;;;0.32;;
59854;SDS011;45732;52.850;6.896;2022-11-04T01:16:25;2.45;;;0.63;;
59854;SDS011;45732;52.850;6.896;2022-11-04T01:18:51;3.90;;;0.60;;
59854;SDS011;45732;52.850;6.896;2022-11-04T01:21:17;2.70;;;0.70;;
59854;SDS011;45732;52.850;6.896;2022-11-04T01:23:44;2.88;;;0.90;;
59854;SDS011;45732;52.850;6.896;2022-11-04T01:26:11;3.33;;;0.80;;
59854;SDS011;45732;52.850;6.896;2022-11-04T01:28:38;0.93;;;0.80;;
59854;SDS011;45732;52.850;6.896;2022-11-04T01:31:05;2.95;;;0.77;;
59854;SDS011;45732;52.850;6.896;2022-11-04T01:33:32;1.27;;;0.65;;
59854;SDS011;45732;52.850;6.896;2022-11-04T01:35:59;1.88;;;0.75;;
59854;SDS011;45732;52.850;6.896;2022-11-04T01:38:25;2.40;;;0.80;;
59854;SDS011;45732;52.850;6.896;2022-11-04T01:40:50;2.67;;;0.90;;
59854;SDS011;45732;52.850;6.896;2022-11-04T01:43:17;2.28;;;0.80;;
59854;SDS011;45732;52.850;6.896;2022-11-04T01:45:48;2.92;;;0.65;;
59854;SDS011;45732;52.850;6.896;2022-11-04T01:50:48;2.47;;;0.85;;
59854;SDS011;45732;52.850;6.896;2022-11-04T01:53:26;2.83;;;0.80;;
59854;SDS011;45732;52.850;6.896;2022-11-04T01:55:56;4.90;;;1.02;;
59854;SDS011;45732;52.850;6.896;2022-11-04T01:58:25;1.27;;;0.82;;
59854;SDS011;45732;52.850;6.896;2022-11-04T02:00:55;2.67;;;0.65;;
59854;SDS011;45732;52.850;6.896;2022-11-04T02:03:34;3.33;;;1.00;;
59854;SDS011;45732;52.850;6.896;2022-11-04T02:06:05;2.47;;;0.80;;
59854;SDS011;45732;52.850;6.896;2022-11-04T02:08:31;2.05;;;0.73;;
59854;SDS011;45732;52.850;6.896;2022-11-04T02:10:59;2.53;;;0.85;;
59854;SDS011;45732;52.850;6.896;2022-11-04T02:13:26;3.85;;;1.10;;
59854;SDS011;45732;52.850;6.896;2022-11-04T02:15:56;4.75;;;1.20;;
59854;SDS011;45732;52.850;6.896;2022-11-04T02:38:05;3.55;;;1.52;;
59854;SDS011;45732;52.850;6.896;2022-11-04T02:40:38;4.03;;;1.75;;
59854;SDS011;45732;52.850;6.896;2022-11-04T02:43:25;4.60;;;1.58;;
59854;SDS011;45732;52.850;6.896;2022-11-04T02:46:13;4.30;;;1.50;;
59854;SDS011;45732;52.850;6.896;2022-11-04T02:48:50;4.70;;;1.80;;
59854;SDS011;45732;52.850;6.896;2022-11-04T02:53:58;2.25;;;1.13;;
59854;SDS011;45732;52.850;6.896;2022-11-04T02:56:31;2.55;;;0.90;;
59854;SDS011;45732;52.850;6.896;2022-11-04T02:59:06;2.58;;;0.82;;
59854;SDS011;45732;52.850;6.896;2022-11-04T03:01:39;3.08;;;0.68;;
59854;SDS011;45732;52.850;6.896;2022-11-04T03:04:12;1.38;;;0.77;;
59854;SDS011;45732;52.850;6.896;2022-11-04T03:06:41;3.35;;;1.15;;
59854;SDS011;45732;52.850;6.896;2022-11-04T03:09:09;3.35;;;1.70;;
59854;SDS011;45732;52.850;6.896;2022-11-04T03:11:37;6.55;;;2.30;;
59854;SDS011;45732;52.850;6.896;2022-11-04T03:14:15;5.30;;;2.40;;
59854;SDS011;45732;52.850;6.896;2022-11-04T03:16:48;6.55;;;2.80;;
59854;SDS011;45732;52.850;6.896;2022-11-04T03:22:15;6.30;;;3.30;;
59854;SDS011;45732;52.850;6.896;2022-11-04T03:24:43;6.20;;;3.28;;
59854;SDS011;45732;52.850;6.896;2022-11-04T03:29:59;7.82;;;4.03;;
59854;SDS011;45732;52.850;6.896;2022-11-04T03:32:32;9.45;;;5.30;;
59854;SDS011;45732;52.850;6.896;2022-11-04T03:35:20;8.38;;;5.65;;
59854;SDS011;45732;52.850;6.896;2022-11-04T03:37:46;10.80;;;6.45;;
59854;SDS011;45732;52.850;6.896;2022-11-04T03:40:13;10.45;;;5.65;;
59854;SDS011;45732;52.850;6.896;2022-11-04T03:42:46;10.70;;;5.63;;
59854;SDS011;45732;52.850;6.896;2022-11-04T03:45:29;7.60;;;3.63;;
59854;SDS011;45732;52.850;6.896;2022-11-04T03:47:55;7.72;;;4.13;;
59854;SDS011;45732;52.850;6.896;2022-11-04T03:52:55;7.53;;;3.35;;
59854;SDS011;45732;52.850;6.896;2022-11-04T03:55:23;7.90;;;3.78;;
59854;SDS011;45732;52.850;6.896;2022-11-04T04:07:03;3.22;;;1.70;;
59854;SDS011;45732;52.850;6.896;2022-11-04T04:09:38;4.13;;;1.60;;
59854;SDS011;45732;52.850;6.896;2022-11-04T04:12:19;2.63;;;1.05;;
59854;SDS011;45732;52.850;6.896;2022-11-04T04:15:16;2.20;;;0.70;;
59854;SDS011;45732;52.850;6.896;2022-11-04T04:17:54;1.20;;;0.70;;
59854;SDS011;45732;52.850;6.896;2022-11-04T04:20:25;2.55;;;0.77;;
59854;SDS011;45732;52.850;6.896;2022-11-04T04:22:54;2.35;;;0.60;;
59854;SDS011;45732;52.850;6.896;2022-11-04T04:25:27;3.50;;;0.70;;
59854;SDS011;45732;52.850;6.896;2022-11-04T04:28:14;1.90;;;0.60;;
59854;SDS011;45732;52.850;6.896;2022-11-04T04:30:41;2.47;;;0.50;;
59854;SDS011;45732;52.850;6.896;2022-11-04T04:33:15;1.88;;;0.55;;
59854;SDS011;45732;52.850;6.896;2022-11-04T04:35:43;0.75;;;0.30;;
59854;SDS011;45732;52.850;6.896;2022-11-04T04:38:17;3.05;;;0.60;;
59854;SDS011;45732;52.850;6.896;2022-11-04T04:41:15;2.78;;;0.50;;
59854;SDS011;45732;52.850;6.896;2022-11-04T04:44:03;3.22;;;0.60;;
59854;SDS011;45732;52.850;6.896;2022-11-04T04:46:49;1.92;;;0.50;;
59854;SDS011;45732;52.850;6.896;2022-11-04T04:49:17;2.03;;;0.52;;
59854;SDS011;45732;52.850;6.896;2022-11-04T04:51:43;1.77;;;0.80;;
59854;SDS011;45732;52.850;6.896;2022-11-04T04:54:11;2.17;;;0.50;;
59854;SDS011;45732;52.850;6.896;2022-11-04T04:56:37;1.40;;;0.60;;
59854;SDS011;45732;52.850;6.896;2022-11-04T04:59:03;3.38;;;0.80;;
59854;SDS011;45732;52.850;6.896;2022-11-04T05:01:29;5.07;;;1.35;;
59854;SDS011;45732;52.850;6.896;2022-11-04T05:03:54;1.63;;;0.82;;
59854;SDS011;45732;52.850;6.896;2022-11-04T05:06:20;2.95;;;0.80;;
59854;SDS011;45732;52.850;6.896;2022-11-04T05:08:46;3.55;;;1.00;;
59854;SDS011;45732;52.850;6.896;2022-11-04T05:11:11;5.05;;;1.33;;
59854;SDS011;45732;52.850;6.896;2022-11-04T05:13:37;2.90;;;0.93;;
59854;SDS011;45732;52.850;6.896;2022-11-04T05:16:08;2.75;;;0.93;;
59854;SDS011;45732;52.850;6.896;2022-11-04T05:18:35;1.58;;;0.77;;
59854;SDS011;45732;52.850;6.896;2022-11-04T05:21:04;2.58;;;0.85;;
59854;SDS011;45732;52.850;6.896;2022-11-04T05:23:32;4.00;;;0.90;;
59854;SDS011;45732;52.850;6.896;2022-11-04T05:25:58;1.77;;;1.00;;
59854;SDS011;45732;52.850;6.896;2022-11-04T05:28:24;3.10;;;1.00;;
59854;SDS011;45732;52.850;6.896;2022-11-04T05:30:50;3.03;;;1.00;;
59854;SDS011;45732;52.850;6.896;2022-11-04T05:33:16;2.08;;;1.00;;
59854;SDS011;45732;52.850;6.896;2022-11-04T05:35:42;5.03;;;1.00;;
59854;SDS011;45732;52.850;6.896;2022-11-04T05:38:08;4.03;;;1.27;;
59854;SDS011;45732;52.850;6.896;2022-11-04T05:40:33;2.03;;;1.20;;
59854;SDS011;45732;52.850;6.896;2022-11-04T05:42:59;2.10;;;0.93;;
59854;SDS011;45732;52.850;6.896;2022-11-04T05:45:25;3.78;;;2.17;;
59854;SDS011;45732;52.850;6.896;2022-11-04T05:47:59;3.88;;;2.30;;
59854;SDS011;45732;52.850;6.896;2022-11-04T05:50:26;5.78;;;1.15;;
59854;SDS011;45732;52.850;6.896;2022-11-04T05:52:54;2.70;;;0.70;;
59854;SDS011;45732;52.850;6.896;2022-11-04T05:55:24;2.45;;;1.00;;
59854;SDS011;45732;52.850;6.896;2022-11-04T05:57:50;1.38;;;0.60;;
59854;SDS011;45732;52.850;6.896;2022-11-04T06:00:16;1.88;;;0.80;;
59854;SDS011;45732;52.850;6.896;2022-11-04T06:02:42;2.38;;;0.73;;
59854;SDS011;45732;52.850;6.896;2022-11-04T06:05:07;3.08;;;1.75;;
59854;SDS011;45732;52.850;6.896;2022-11-04T06:07:33;2.35;;;0.70;;
59854;SDS011;45732;52.850;6.896;2022-11-04T06:09:59;2.13;;;0.65;;
59854;SDS011;45732;52.850;6.896;2022-11-04T06:12:25;4.80;;;2.95;;
59854;SDS011;45732;52.850;6.896;2022-11-04T06:14:50;3.90;;;0.80;;
59854;SDS011;45732;52.850;6.896;2022-11-04T06:17:18;2.60;;;0.70;;
59854;SDS011;45732;52.850;6.896;2022-11-04T06:19:44;3.90;;;0.70;;
59854;SDS011;45732;52.850;6.896;2022-11-04T06:22:11;2.60;;;0.60;;
59854;SDS011;45732;52.850;6.896;2022-11-04T06:24:38;5.18;;;0.80;;
59854;SDS011;45732;52.850;6.896;2022-11-04T06:27:05;2.08;;;0.60;;
59854;SDS011;45732;52.850;6.896;2022-11-04T06:29:30;3.92;;;0.95;;
59854;SDS011;45732;52.850;6.896;2022-11-04T06:31:56;3.85;;;0.95;;
59854;SDS011;45732;52.850;6.896;2022-11-04T06:34:22;5.88;;;0.90;;
59854;SDS011;45732;52.850;6.896;2022-11-04T06:36:48;2.20;;;0.80;;
59854;SDS011;45732;52.850;6.896;2022-11-04T06:39:14;2.92;;;1.00;;
59854;SDS011;45732;52.850;6.896;2022-11-04T06:41:40;1.85;;;0.90;;
59854;SDS011;45732;52.850;6.896;2022-11-04T06:44:06;1.63;;;0.80;;
59854;SDS011;45732;52.850;6.896;2022-11-04T06:46:39;2.53;;;1.00;;
59854;SDS011;45732;52.850;6.896;2022-11-04T06:49:08;3.35;;;0.80;;
59854;SDS011;45732;52.850;6.896;2022-11-04T06:51:36;3.20;;;0.85;;
59854;SDS011;45732;52.850;6.896;2022-11-04T06:54:02;4.10;;;0.95;;
59854;SDS011;45732;52.850;6.896;2022-11-04T06:56:28;2.70;;;1.00;;
59854;SDS011;45732;52.850;6.896;2022-11-04T06:58:54;2.22;;;0.90;;
59854;SDS011;45732;52.850;6.896;2022-11-04T07:01:23;3.83;;;1.00;;
59854;SDS011;45732;52.850;6.896;2022-11-04T07:03:52;3.90;;;1.23;;
59854;SDS011;45732;52.850;6.896;2022-11-04T07:06:19;4.93;;;1.65;;
59854;SDS011;45732;52.850;6.896;2022-11-04T07:08:49;3.38;;;1.40;;
59854;SDS011;45732;52.850;6.896;2022-11-04T07:11:16;5.50;;;1.20;;
59854;SDS011;45732;52.850;6.896;2022-11-04T07:13:45;3.08;;;1.00;;
59854;SDS011;45732;52.850;6.896;2022-11-04T07:16:11;2.45;;;1.17;;
59854;SDS011;45732;52.850;6.896;2022-11-04T07:18:37;3.60;;;1.20;;
59854;SDS011;45732;52.850;6.896;2022-11-04T07:21:04;2.40;;;1.08;;
59854;SDS011;45732;52.850;6.896;2022-11-04T07:23:29;5.43;;;1.30;;
59854;SDS011;45732;52.850;6.896;2022-11-04T07:25:59;4.20;;;1.40;;
59854;SDS011;45732;52.850;6.896;2022-11-04T07:28:26;2.45;;;1.30;;
59854;SDS011;45732;52.850;6.896;2022-11-04T07:30:54;3.13;;;1.20;;
59854;SDS011;45732;52.850;6.896;2022-11-04T07:33:21;2.80;;;1.60;;
59854;SDS011;45732;52.850;6.896;2022-11-04T07:35:47;2.05;;;1.20;;
59854;SDS011;45732;52.850;6.896;2022-11-04T07:38:12;5.53;;;1.70;;
59854;SDS011;45732;52.850;6.896;2022-11-04T07:40:38;7.55;;;2.00;;
59854;SDS011;45732;52.850;6.896;2022-11-04T07:43:04;2.83;;;1.60;;
59854;SDS011;45732;52.850;6.896;2022-11-04T07:45:31;3.60;;;1.77;;
59854;SDS011;45732;52.850;6.896;2022-11-04T07:47:57;5.38;;;1.95;;
59854;SDS011;45732;52.850;6.896;2022-11-04T07:50:23;7.10;;;2.60;;
59854;SDS011;45732;52.850;6.896;2022-11-04T07:52:48;5.80;;;2.65;;
59854;SDS011;45732;52.850;6.896;2022-11-04T07:55:17;5.95;;;3.17;;
59854;SDS011;45732;52.850;6.896;2022-11-04T07:57:46;8.32;;;2.92;;
59854;SDS011;45732;52.850;6.896;2022-11-04T08:00:13;7.00;;;3.13;;
59854;SDS011;45732;52.850;6.896;2022-11-04T08:02:40;6.70;;;3.35;;
59854;SDS011;45732;52.850;6.896;2022-11-04T08:05:08;6.68;;;3.53;;
59854;SDS011;45732;52.850;6.896;2022-11-04T08:07:34;7.03;;;3.50;;
59854;SDS011;45732;52.850;6.896;2022-11-04T08:10:00;7.93;;;4.07;;
59854;SDS011;45732;52.850;6.896;2022-11-04T08:12:26;8.13;;;4.00;;
59854;SDS011;45732;52.850;6.896;2022-11-04T08:14:52;9.43;;;3.97;;
59854;SDS011;45732;52.850;6.896;2022-11-04T08:17:17;8.95;;;4.53;;
59854;SDS011;45732;52.850;6.896;2022-11-04T08:19:44;7.60;;;4.53;;
59854;SDS011;45732;52.850;6.896;2022-11-04T08:22:10;9.05;;;4.25;;
59854;SDS011;45732;52.850;6.896;2022-11-04T08:24:35;8.75;;;4.85;;
59854;SDS011;45732;52.850;6.896;2022-11-04T08:27:03;10.25;;;5.10;;
59854;SDS011;45732;52.850;6.896;2022-11-04T08:29:31;10.25;;;4.55;;
59854;SDS011;45732;52.850;6.896;2022-11-04T08:31:58;8.77;;;4.93;;
59854;SDS011;45732;52.850;6.896;2022-11-04T08:34:23;10.85;;;5.35;;
59854;SDS011;45732;52.850;6.896;2022-11-04T08:36:49;9.55;;;5.13;;
59854;SDS011;45732;52.850;6.896;2022-11-04T08:39:17;11.43;;;5.25;;
59854;SDS011;45732;52.850;6.896;2022-11-04T08:41:43;8.70;;;5.03;;
59854;SDS011;45732;52.850;6.896;2022-11-04T08:44:12;8.32;;;5.43;;
59854;SDS011;45732;52.850;6.896;2022-11-04T08:46:38;10.07;;;5.65;;
59854;SDS011;45732;52.850;6.896;2022-11-04T08:49:05;10.48;;;5.00;;
59854;SDS011;45732;52.850;6.896;2022-11-04T08:51:31;14.68;;;6.07;;
59854;SDS011;45732;52.850;6.896;2022-11-04T08:53:58;12.15;;;6.22;;
59854;SDS011;45732;52.850;6.896;2022-11-04T08:56:26;11.73;;;6.38;;
59854;SDS011;45732;52.850;6.896;2022-11-04T08:58:53;9.82;;;6.32;;
59854;SDS011;45732;52.850;6.896;2022-11-04T09:01:20;9.95;;;6.05;;
59854;SDS011;45732;52.850;6.896;2022-11-04T09:03:46;10.40;;;6.22;;
59854;SDS011;45732;52.850;6.896;2022-11-04T09:06:14;9.75;;;5.90;;
59854;SDS011;45732;52.850;6.896;2022-11-04T09:08:45;11.05;;;6.60;;
59854;SDS011;45732;52.850;6.896;2022-11-04T09:11:12;10.43;;;6.38;;
59854;SDS011;45732;52.850;6.896;2022-11-04T09:13:39;10.00;;;6.18;;
59854;SDS011;45732;52.850;6.896;2022-11-04T09:16:06;10.52;;;6.20;;
59854;SDS011;45732;52.850;6.896;2022-11-04T09:18:33;10.07;;;5.90;;
59854;SDS011;45732;52.850;6.896;2022-11-04T09:20:59;9.85;;;5.60;;
59854;SDS011;45732;52.850;6.896;2022-11-04T09:23:26;11.18;;;6.47;;
59854;SDS011;45732;52.850;6.896;2022-11-04T09:25:52;10.80;;;5.88;;
59854;SDS011;45732;52.850;6.896;2022-11-04T09:28:19;10.82;;;5.93;;
59854;SDS011;45732;52.850;6.896;2022-11-04T09:30:45;10.05;;;6.65;;
59854;SDS011;45732;52.850;6.896;2022-11-04T09:33:11;10.73;;;7.00;;
59854;SDS011;45732;52.850;6.896;2022-11-04T09:35:36;10.63;;;6.97;;
59854;SDS011;45732;52.850;6.896;2022-11-04T09:38:02;11.00;;;6.65;;
59854;SDS011;45732;52.850;6.896;2022-11-04T09:40:28;12.52;;;6.72;;
59854;SDS011;45732;52.850;6.896;2022-11-04T09:43:07;13.52;;;7.82;;
59854;SDS011;45732;52.850;6.896;2022-11-04T09:45:54;11.25;;;7.72;;
59854;SDS011;45732;52.850;6.896;2022-11-04T09:48:30;13.13;;;8.25;;
59854;SDS011;45732;52.850;6.896;2022-11-04T09:51:02;14.18;;;8.57;;
59854;SDS011;45732;52.850;6.896;2022-11-04T09:53:37;12.93;;;8.77;;
59854;SDS011;45732;52.850;6.896;2022-11-04T09:56:10;15.05;;;10.45;;
59854;SDS011;45732;52.850;6.896;2022-11-04T09:58:41;14.77;;;10.85;;
59854;SDS011;45732;52.850;6.896;2022-11-04T10:06:31;18.23;;;13.30;;
59854;SDS011;45732;52.850;6.896;2022-11-04T10:18:27;20.25;;;14.05;;
59854;SDS011;45732;52.850;6.896;2022-11-04T10:23:43;18.38;;;13.45;;
59854;SDS011;45732;52.850;6.896;2022-11-04T10:26:36;17.45;;;12.77;;
59854;SDS011;45732;52.850;6.896;2022-11-04T10:29:12;18.25;;;12.80;;
59854;SDS011;45732;52.850;6.896;2022-11-04T10:32:00;17.95;;;12.50;;
59854;SDS011;45732;52.850;6.896;2022-11-04T10:34:33;18.17;;;12.60;;
59854;SDS011;45732;52.850;6.896;2022-11-04T10:37:10;17.98;;;13.30;;
59854;SDS011;45732;52.850;6.896;2022-11-04T10:39:38;19.02;;;13.85;;
59854;SDS011;45732;52.850;6.896;2022-11-04T10:42:12;18.30;;;13.40;;
59854;SDS011;45732;52.850;6.896;2022-11-04T10:44:41;19.05;;;12.38;;
59854;SDS011;45732;52.850;6.896;2022-11-04T10:52:53;17.63;;;13.02;;
59854;SDS011;45732;52.850;6.896;2022-11-04T10:55:33;20.05;;;15.20;;
59854;SDS011;45732;52.850;6.896;2022-11-04T10:58:16;17.42;;;12.55;;
59854;SDS011;45732;52.850;6.896;2022-11-04T11:00:46;19.40;;;14.27;;
59854;SDS011;45732;52.850;6.896;2022-11-04T11:03:31;20.48;;;13.48;;
59854;SDS011;45732;52.850;6.896;2022-11-04T11:08:36;17.27;;;12.27;;
59854;SDS011;45732;52.850;6.896;2022-11-04T11:11:03;17.17;;;12.35;;
59854;SDS011;45732;52.850;6.896;2022-11-04T11:13:34;19.83;;;12.45;;
59854;SDS011;45732;52.850;6.896;2022-11-04T11:16:07;18.60;;;13.27;;
59854;SDS011;45732;52.850;6.896;2022-11-04T11:18:36;17.13;;;11.82;;
59854;SDS011;45732;52.850;6.896;2022-11-04T11:23:41;19.75;;;12.90;;
59854;SDS011;45732;52.850;6.896;2022-11-04T11:26:20;20.23;;;13.20;;
59854;SDS011;45732;52.850;6.896;2022-11-04T11:31:20;17.17;;;11.60;;
59854;SDS011;45732;52.850;6.896;2022-11-04T11:33:51;19.23;;;12.77;;
59854;SDS011;45732;52.850;6.896;2022-11-04T11:41:49;16.35;;;11.73;;
59854;SDS011;45732;52.850;6.896;2022-11-04T11:46:56;17.75;;;12.25;;
59854;SDS011;45732;52.850;6.896;2022-11-04T11:49:33;16.75;;;12.13;;
59854;SDS011;45732;52.850;6.896;2022-11-04T12:00:36;16.30;;;9.90;;
59854;SDS011;45732;52.850;6.896;2022-11-04T12:03:14;14.85;;;9.60;;
59854;SDS011;45732;52.850;6.896;2022-11-04T12:11:37;14.40;;;9.50;;
59854;SDS011;45732;52.850;6.896;2022-11-04T12:23:11;11.38;;;7.82;;
59854;SDS011;45732;52.850;6.896;2022-11-04T12:42:13;13.48;;;8.30;;
59854;SDS011;45732;52.850;6.896;2022-11-04T12:45:03;13.27;;;8.75;;
59854;SDS011;45732;52.850;6.896;2022-11-04T12:47:44;13.77;;;7.95;;
59854;SDS011;45732;52.850;6.896;2022-11-04T12:56:11;6.13;;;1.40;;
59854;SDS011;45732;52.850;6.896;2022-11-04T13:01:35;3.85;;;1.08;;
59854;SDS011;45732;52.850;6.896;2022-11-04T13:04:08;5.85;;;1.17;;
59854;SDS011;45732;52.850;6.896;2022-11-04T13:06:40;4.90;;;1.08;;
59854;SDS011;45732;52.850;6.896;2022-11-04T13:12:22;4.28;;;0.77;;
59854;SDS011;45732;52.850;6.896;2022-11-04T13:17:32;3.65;;;0.75;;
59854;SDS011;45732;52.850;6.896;2022-11-04T13:20:12;4.85;;;0.93;;
59854;SDS011;45732;52.850;6.896;2022-11-04T13:22:50;4.88;;;1.35;;
59854;SDS011;45732;52.850;6.896;2022-11-04T13:25:32;3.38;;;0.70;;
59854;SDS011;45732;52.850;6.896;2022-11-04T13:28:03;4.03;;;0.93;;
59854;SDS011;45732;52.850;6.896;2022-11-04T13:33:13;3.55;;;0.80;;
59854;SDS011;45732;52.850;6.896;2022-11-04T13:36:22;5.78;;;1.17;;
59854;SDS011;45732;52.850;6.896;2022-11-04T13:39:12;5.53;;;1.05;;
59854;SDS011;45732;52.850;6.896;2022-11-04T13:44:51;4.35;;;0.90;;
59854;SDS011;45732;52.850;6.896;2022-11-04T13:47:25;6.10;;;1.23;;
59854;SDS011;45732;52.850;6.896;2022-11-04T13:50:14;4.43;;;1.00;;
59854;SDS011;45732;52.850;6.896;2022-11-04T13:53:03;5.38;;;1.00;;
59854;SDS011;45732;52.850;6.896;2022-11-04T13:55:31;6.65;;;1.33;;
59854;SDS011;45732;52.850;6.896;2022-11-04T13:58:00;6.18;;;0.95;;
59854;SDS011;45732;52.850;6.896;2022-11-04T14:00:30;6.82;;;1.10;;
59854;SDS011;45732;52.850;6.896;2022-11-04T14:06:05;5.82;;;1.23;;
59854;SDS011;45732;52.850;6.896;2022-11-04T14:08:32;4.03;;;1.00;;
59854;SDS011;45732;52.850;6.896;2022-11-04T14:11:03;3.25;;;1.10;;
59854;SDS011;45732;52.850;6.896;2022-11-04T14:18:55;4.38;;;1.42;;
59854;SDS011;45732;52.850;6.896;2022-11-04T14:21:22;4.50;;;0.98;;
59854;SDS011;45732;52.850;6.896;2022-11-04T14:23:52;5.25;;;1.30;;
59854;SDS011;45732;52.850;6.896;2022-11-04T14:26:40;4.07;;;1.05;;
59854;SDS011;45732;52.850;6.896;2022-11-04T14:31:59;6.25;;;1.48;;
59854;SDS011;45732;52.850;6.896;2022-11-04T14:36:54;5.38;;;1.10;;
59854;SDS011;45732;52.850;6.896;2022-11-04T14:39:22;4.45;;;1.15;;
59854;SDS011;45732;52.850;6.896;2022-11-04T14:41:59;4.45;;;1.10;;
59854;SDS011;45732;52.850;6.896;2022-11-04T14:47:01;3.60;;;1.10;;
59854;SDS011;45732;52.850;6.896;2022-11-04T14:52:26;5.40;;;1.60;;
59854;SDS011;45732;52.850;6.896;2022-11-04T14:54:54;7.10;;;1.50;;
59854;SDS011;45732;52.850;6.896;2022-11-04T14:57:37;4.13;;;1.25;;
59854;SDS011;45732;52.850;6.896;2022-11-04T15:02:48;7.00;;;1.38;;
59854;SDS011;45732;52.850;6.896;2022-11-04T15:05:29;7.03;;;1.88;;
59854;SDS011;45732;52.850;6.896;2022-11-04T15:07:57;5.47;;;1.27;;
59854;SDS011;45732;52.850;6.896;2022-11-04T15:10:24;4.55;;;1.30;;
59854;SDS011;45732;52.850;6.896;2022-11-04T15:12:56;4.80;;;1.40;;
59854;SDS011;45732;52.850;6.896;2022-11-04T15:17:58;5.18;;;1.40;;
59854;SDS011;45732;52.850;6.896;2022-11-04T15:20:27;5.83;;;1.53;;
59854;SDS011;45732;52.850;6.896;2022-11-04T15:22:57;6.43;;;1.88;;
59854;SDS011;45732;52.850;6.896;2022-11-04T15:25:26;6.75;;;1.60;;
59854;SDS011;45732;52.850;6.896;2022-11-04T15:27:52;7.32;;;1.63;;
59854;SDS011;45732;52.850;6.896;2022-11-04T15:30:20;6.20;;;1.45;;
59854;SDS011;45732;52.850;6.896;2022-11-04T15:32:52;6.18;;;1.75;;
59854;SDS011;45732;52.850;6.896;2022-11-04T15:35:27;6.75;;;1.55;;
59854;SDS011;45732;52.850;6.896;2022-11-04T15:37:58;7.93;;;1.60;;
59854;SDS011;45732;52.850;6.896;2022-11-04T15:40:26;6.50;;;1.90;;
59854;SDS011;45732;52.850;6.896;2022-11-04T15:42:52;5.57;;;1.95;;
59854;SDS011;45732;52.850;6.896;2022-11-04T15:50:54;5.88;;;2.08;;
59854;SDS011;45732;52.850;6.896;2022-11-04T15:53:28;7.07;;;1.88;;
59854;SDS011;45732;52.850;6.896;2022-11-04T15:55:56;6.47;;;2.00;;
59854;SDS011;45732;52.850;6.896;2022-11-04T15:58:21;7.63;;;1.90;;
59854;SDS011;45732;52.850;6.896;2022-11-04T16:00:53;7.93;;;2.03;;
59854;SDS011;45732;52.850;6.896;2022-11-04T16:03:20;7.82;;;2.35;;
59854;SDS011;45732;52.850;6.896;2022-11-04T16:06:03;9.30;;;2.72;;
59854;SDS011;45732;52.850;6.896;2022-11-04T16:11:07;8.35;;;3.10;;
59854;SDS011;45732;52.850;6.896;2022-11-04T16:13:33;9.73;;;3.17;;
59854;SDS011;45732;52.850;6.896;2022-11-04T16:18:40;7.88;;;3.38;;
59854;SDS011;45732;52.850;6.896;2022-11-04T16:21:12;8.60;;;3.50;;
59854;SDS011;45732;52.850;6.896;2022-11-04T16:23:46;9.82;;;3.55;;
59854;SDS011;45732;52.850;6.896;2022-11-04T16:26:14;9.93;;;3.50;;
59854;SDS011;45732;52.850;6.896;2022-11-04T16:28:40;8.95;;;4.20;;
59854;SDS011;45732;52.850;6.896;2022-11-04T16:31:40;7.00;;;3.70;;
59854;SDS011;45732;52.850;6.896;2022-11-04T16:33:59;10.32;;;3.85;;
59854;SDS011;45732;52.850;6.896;2022-11-04T16:36:25;7.45;;;3.40;;
59854;SDS011;45732;52.850;6.896;2022-11-04T16:38:55;9.68;;;3.30;;
59854;SDS011;45732;52.850;6.896;2022-11-04T16:41:22;10.00;;;2.97;;
59854;SDS011;45732;52.850;6.896;2022-11-04T16:43:50;9.32;;;2.65;;
59854;SDS011;45732;52.850;6.896;2022-11-04T16:46:16;7.40;;;2.90;;
59854;SDS011;45732;52.850;6.896;2022-11-04T16:48:42;6.80;;;2.45;;
59854;SDS011;45732;52.850;6.896;2022-11-04T16:51:12;8.70;;;2.90;;
59854;SDS011;45732;52.850;6.896;2022-11-04T16:53:52;7.97;;;3.50;;
59854;SDS011;45732;52.850;6.896;2022-11-04T16:56:22;9.68;;;3.75;;
59854;SDS011;45732;52.850;6.896;2022-11-04T16:58:49;9.45;;;4.10;;
59854;SDS011;45732;52.850;6.896;2022-11-04T17:01:15;8.00;;;3.85;;
59854;SDS011;45732;52.850;6.896;2022-11-04T17:03:43;9.32;;;4.07;;
59854;SDS011;45732;52.850;6.896;2022-11-04T17:06:10;9.23;;;4.03;;
59854;SDS011;45732;52.850;6.896;2022-11-04T17:08:37;10.30;;;3.40;;
59854;SDS011;45732;52.850;6.896;2022-11-04T17:11:03;8.38;;;3.10;;
59854;SDS011;45732;52.850;6.896;2022-11-04T17:13:29;7.25;;;2.78;;
59854;SDS011;45732;52.850;6.896;2022-11-04T17:15:56;9.38;;;2.92;;
59854;SDS011;45732;52.850;6.896;2022-11-04T17:18:22;8.18;;;2.85;;
59854;SDS011;45732;52.850;6.896;2022-11-04T17:20:48;9.23;;;3.00;;
59854;SDS011;45732;52.850;6.896;2022-11-04T17:23:16;6.20;;;2.67;;
59854;SDS011;45732;52.850;6.896;2022-11-04T17:25:42;9.25;;;2.72;;
59854;SDS011;45732;52.850;6.896;2022-11-04T17:28:09;10.23;;;3.30;;
59854;SDS011;45732;52.850;6.896;2022-11-04T17:30:34;9.27;;;3.00;;
59854;SDS011;45732;52.850;6.896;2022-11-04T17:33:00;9.50;;;2.83;;
59854;SDS011;45732;52.850;6.896;2022-11-04T17:35:30;11.50;;;2.95;;
59854;SDS011;45732;52.850;6.896;2022-11-04T17:38:06;10.38;;;2.92;;
59854;SDS011;45732;52.850;6.896;2022-11-04T17:40:33;9.27;;;2.97;;
59854;SDS011;45732;52.850;6.896;2022-11-04T17:43:19;7.30;;;2.92;;
59854;SDS011;45732;52.850;6.896;2022-11-04T17:46:03;9.20;;;3.00;;
59854;SDS011;45732;52.850;6.896;2022-11-04T17:48:49;7.60;;;2.92;;
59854;SDS011;45732;52.850;6.896;2022-11-04T17:51:14;7.30;;;3.42;;
59854;SDS011;45732;52.850;6.896;2022-11-04T17:53:40;10.23;;;3.55;;
59854;SDS011;45732;52.850;6.896;2022-11-04T17:56:12;8.30;;;3.72;;
59854;SDS011;45732;52.850;6.896;2022-11-04T17:58:41;8.25;;;3.30;;
59854;SDS011;45732;52.850;6.896;2022-11-04T18:01:08;8.85;;;3.13;;